Aurora, North Carolina
Current Conditions -  °F | °C
As of 7:54 PM on Wednesday 22 Oct 2014 (Local Time) from KEWN Reporting Station
Scattered Clouds Scattered Clouds  
Wind Chill: 58°   Ceiling: Unl
Heat Index: 58°   Visibility: 10mi
Dew Point: 49°   Wind: 5mph
Humidity: 72%   Direction: 310°NW
Pressure: 29.95"   Gusts: NA
Location:  35.31°N, 76.79°W
Report Text: KEWN 222354Z 31004KT 10SM SCT075 14/09 A2995 RMK AO2 SLP143 T01440094 10183 20144 53007
Loading
Personal Weather Stations






























Interactive Weather Map
Tropical Storm Tracking
New forecast layout! Learn more

10-Day Weather Forecast

Advertisements
Track Severe Weather on mobile